createdAt,value
2023-12-03T00:02:55.881Z,99.90
2023-12-03T00:06:57.493Z,99.90
2023-12-03T00:10:58.835Z,99.90
2023-12-03T00:15:00.592Z,99.90
2023-12-03T00:19:02.009Z,99.90
2023-12-03T00:23:04.094Z,99.90
2023-12-03T00:27:06.082Z,99.90
2023-12-03T00:31:07.692Z,99.90
2023-12-03T00:35:08.990Z,99.90
2023-12-03T00:39:10.539Z,99.90
2023-12-03T00:43:11.881Z,99.90
2023-12-03T00:47:13.124Z,99.90
2023-12-03T00:51:14.975Z,99.90
2023-12-03T00:55:19.197Z,99.90
2023-12-03T00:59:19.575Z,99.90
2023-12-03T01:03:20.928Z,99.90
2023-12-03T01:07:22.200Z,99.90
2023-12-03T01:11:34.955Z,99.90
2023-12-03T01:15:26.666Z,99.90
2023-12-03T01:19:28.041Z,99.90
2023-12-03T01:23:30.027Z,99.90
2023-12-03T01:27:32.190Z,99.90
2023-12-03T01:31:33.530Z,99.90
2023-12-03T01:35:35.602Z,99.90
2023-12-03T01:39:38.373Z,99.90
2023-12-03T01:43:50.867Z,99.90
2023-12-03T01:47:52.267Z,99.90
2023-12-03T01:51:54.008Z,99.90
2023-12-03T01:55:55.984Z,99.90
2023-12-03T01:59:59.502Z,99.90
2023-12-03T02:04:01.156Z,99.90
2023-12-03T02:08:02.517Z,99.90
2023-12-03T02:12:04.229Z,99.90
2023-12-03T02:16:06.287Z,99.90
2023-12-03T02:20:08.223Z,99.90
2023-12-03T02:24:09.588Z,99.90
2023-12-03T02:28:10.883Z,99.90
2023-12-03T02:32:12.314Z,99.90
2023-12-03T02:36:13.647Z,99.90
2023-12-03T02:40:15.078Z,99.90
2023-12-03T02:44:16.414Z,99.90
2023-12-03T02:48:17.914Z,99.90
2023-12-03T02:52:19.448Z,99.90
2023-12-03T02:56:20.768Z,99.90
2023-12-03T03:00:22.176Z,99.90
2023-12-03T03:04:23.710Z,99.90
2023-12-03T03:08:25.027Z,99.90
2023-12-03T03:12:26.441Z,99.90
2023-12-03T03:16:27.736Z,99.90
2023-12-03T03:20:30.617Z,99.90
2023-12-03T03:24:32.009Z,99.90
2023-12-03T03:28:33.315Z,99.90
2023-12-03T03:32:34.809Z,99.90
2023-12-03T03:36:36.192Z,99.90
2023-12-03T03:40:37.493Z,99.90
2023-12-03T03:44:38.818Z,99.90
2023-12-03T03:48:40.212Z,99.90
2023-12-03T03:52:41.560Z,99.90
2023-12-03T03:56:47.629Z,99.90
2023-12-03T04:00:48.996Z,99.90
2023-12-03T04:04:50.290Z,99.90
2023-12-03T04:08:51.654Z,99.90
2023-12-03T04:12:53.151Z,99.90
2023-12-03T04:16:59.254Z,99.90
2023-12-03T04:21:00.552Z,99.90
2023-12-03T04:25:01.990Z,99.90
2023-12-03T04:29:04.622Z,99.90
2023-12-03T04:33:06.108Z,99.90
2023-12-03T04:37:07.465Z,99.90
2023-12-03T04:41:09.204Z,99.90
2023-12-03T04:45:10.600Z,99.90
2023-12-03T04:49:12.101Z,99.90
2023-12-03T04:53:13.523Z,99.90
2023-12-03T04:57:14.834Z,99.90
2023-12-03T05:01:19.358Z,99.90
2023-12-03T05:05:20.885Z,99.90
2023-12-03T05:09:22.212Z,99.90
2023-12-03T05:13:23.533Z,99.90
2023-12-03T05:17:24.904Z,99.90
2023-12-03T05:21:26.182Z,99.90
2023-12-03T05:25:27.504Z,99.90
2023-12-03T05:29:28.795Z,99.90
2023-12-03T05:33:30.276Z,99.90
2023-12-03T05:37:31.625Z,99.90
2023-12-03T05:41:38.391Z,99.90
2023-12-03T05:45:39.804Z,99.90
2023-12-03T05:51:10.911Z,99.90
2023-12-03T05:55:12.253Z,99.90
2023-12-03T05:59:13.611Z,99.90
2023-12-03T06:03:15.002Z,99.90
2023-12-03T06:07:16.497Z,99.90
2023-12-03T06:11:17.862Z,99.90
2023-12-03T06:15:19.261Z,99.90
2023-12-03T06:19:20.619Z,99.90
2023-12-03T06:23:22.791Z,99.90
2023-12-03T06:27:24.134Z,99.90
2023-12-03T06:31:25.455Z,99.90
2023-12-03T06:35:26.826Z,99.90
2023-12-03T06:39:28.394Z,99.90
2023-12-03T06:43:29.866Z,99.90
2023-12-03T06:47:31.232Z,99.90
2023-12-03T06:51:32.594Z,99.90
2023-12-03T06:55:33.955Z,99.90
2023-12-03T06:59:35.279Z,99.90
2023-12-03T07:03:36.706Z,99.90
2023-12-03T07:07:38.174Z,99.90
2023-12-03T07:11:39.520Z,99.90
2023-12-03T07:15:40.996Z,99.90
2023-12-03T07:19:43.781Z,99.90
2023-12-03T07:23:45.041Z,99.90
2023-12-03T07:27:46.452Z,99.90
2023-12-03T07:31:47.962Z,99.90
2023-12-03T07:35:49.347Z,99.90
2023-12-03T07:39:50.722Z,99.90
2023-12-03T07:43:52.313Z,99.90
2023-12-03T07:47:53.805Z,99.90
2023-12-03T07:51:56.489Z,99.90
2023-12-03T07:55:58.244Z,99.90
2023-12-03T07:59:59.732Z,99.90
2023-12-03T08:04:01.747Z,99.90
2023-12-03T08:08:03.522Z,99.90
2023-12-03T08:12:05.276Z,99.90
2023-12-03T08:16:07.850Z,99.90
2023-12-03T08:20:11.122Z,99.90
2023-12-03T08:24:12.540Z,99.90
2023-12-03T08:28:14.036Z,99.90
2023-12-03T08:32:15.479Z,99.90
2023-12-03T08:36:18.887Z,99.90
2023-12-03T08:40:20.814Z,99.90
2023-12-03T08:44:22.475Z,99.90
2023-12-03T08:48:23.957Z,99.90
2023-12-03T08:52:25.677Z,99.90
2023-12-03T08:56:27.057Z,99.90
2023-12-03T09:00:28.641Z,99.90
2023-12-03T09:04:30.055Z,99.90
2023-12-03T09:08:31.685Z,99.90
2023-12-03T09:12:33.373Z,99.90
2023-12-03T09:16:34.681Z,99.90
2023-12-03T09:20:36.202Z,99.90
2023-12-03T09:24:37.656Z,99.90
2023-12-03T09:28:39.065Z,99.90
2023-12-03T09:32:40.963Z,99.90
2023-12-03T09:36:42.447Z,99.90
2023-12-03T09:40:45.347Z,99.90
2023-12-03T09:44:51.147Z,98.90
2023-12-03T09:48:54.337Z,96.00
2023-12-03T09:52:56.732Z,99.90
2023-12-03T09:56:59.737Z,95.20
2023-12-03T10:01:02.213Z,97.80
2023-12-03T10:05:04.667Z,96.20
2023-12-03T10:09:07.460Z,97.50
2023-12-03T10:13:12.865Z,93.00
2023-12-03T10:17:21.550Z,97.80
2023-12-03T10:21:25.377Z,96.10
2023-12-03T10:25:33.251Z,97.20
2023-12-03T10:29:34.639Z,87.00
2023-12-03T10:33:37.461Z,90.90
2023-12-03T10:37:39.211Z,90.70
2023-12-03T10:41:40.995Z,89.50
2023-12-03T10:45:42.466Z,88.50
2023-12-03T10:49:45.771Z,82.30
2023-12-03T10:53:47.433Z,76.80
2023-12-03T10:58:00.906Z,86.30
2023-12-03T11:02:07.139Z,86.30
2023-12-03T11:06:10.270Z,85.80
2023-12-03T11:10:13.522Z,82.90
2023-12-03T11:14:16.085Z,81.90
2023-12-03T11:18:19.810Z,83.00
2023-12-03T11:22:30.882Z,83.80
2023-12-03T11:26:33.128Z,85.20
2023-12-03T11:30:42.748Z,88.60
2023-12-03T11:34:44.723Z,90.00
2023-12-03T11:38:46.891Z,85.70
2023-12-03T11:42:49.931Z,79.10
2023-12-03T11:47:07.022Z,82.10
2023-12-03T11:51:10.263Z,78.50
2023-12-03T11:55:15.412Z,83.10
2023-12-03T11:59:16.805Z,80.00
2023-12-03T12:03:18.668Z,82.20
2023-12-03T12:07:20.369Z,75.00
2023-12-03T12:11:21.880Z,75.50
2023-12-03T12:15:24.144Z,75.20
2023-12-03T12:19:25.833Z,80.50
2023-12-03T12:23:28.029Z,76.20
2023-12-03T12:27:30.206Z,76.60
2023-12-03T12:31:31.541Z,75.20
2023-12-03T12:35:33.500Z,77.80
2023-12-03T12:39:35.283Z,74.40
2023-12-03T12:43:58.078Z,74.00
2023-12-03T12:47:59.771Z,78.10
2023-12-03T13:00:27.971Z,81.50
2023-12-03T13:04:29.345Z,76.30
2023-12-03T13:08:31.157Z,80.90
2023-12-03T13:12:32.564Z,81.90
2023-12-03T13:16:34.708Z,73.70
2023-12-03T13:20:36.214Z,76.90
2023-12-03T13:24:38.170Z,80.00
2023-12-03T13:28:39.524Z,73.80
2023-12-03T13:32:42.167Z,74.50
2023-12-03T13:36:43.872Z,78.40
2023-12-03T13:40:45.188Z,77.20
2023-12-03T13:44:46.496Z,82.50
2023-12-03T13:48:47.924Z,76.70
2023-12-03T13:52:49.476Z,80.50
2023-12-03T13:56:50.901Z,81.00
2023-12-03T14:00:52.241Z,81.60
2023-12-03T14:05:00.638Z,80.90
2023-12-03T14:08:56.661Z,79.30
2023-12-03T14:12:58.005Z,79.60
2023-12-03T14:17:01.002Z,80.60
2023-12-03T14:21:02.581Z,80.30
2023-12-03T14:25:04.291Z,81.90
2023-12-03T14:29:05.643Z,78.80
2023-12-03T14:33:07.311Z,80.30
2023-12-03T14:37:08.872Z,79.50
2023-12-03T14:41:10.138Z,76.60
2023-12-03T14:45:12.454Z,81.50
2023-12-03T14:49:14.350Z,81.90
2023-12-03T14:53:15.884Z,79.10
2023-12-03T14:57:17.192Z,80.60
2023-12-03T15:01:27.432Z,81.10
2023-12-03T15:05:28.780Z,80.40
2023-12-03T15:09:30.072Z,84.10
2023-12-03T15:13:31.423Z,87.60
2023-12-03T15:17:32.734Z,90.20
2023-12-03T15:21:35.676Z,93.70
2023-12-03T15:25:37.251Z,95.30
2023-12-03T15:29:38.527Z,96.50
2023-12-03T15:33:40.893Z,98.00
2023-12-03T15:37:43.163Z,98.20
2023-12-03T15:41:44.711Z,99.20
2023-12-03T15:45:46.089Z,99.90
2023-12-03T15:49:48.385Z,99.90
2023-12-03T15:53:49.655Z,99.90
2023-12-03T15:57:51.747Z,99.90
2023-12-03T16:01:53.166Z,99.90
2023-12-03T16:05:54.903Z,99.90
2023-12-03T16:09:56.670Z,99.90
2023-12-03T16:13:58.022Z,99.90
2023-12-03T16:17:59.393Z,99.90
2023-12-03T16:22:00.802Z,99.90
2023-12-03T16:26:02.138Z,99.90
2023-12-03T16:30:05.428Z,99.90
2023-12-03T16:34:06.904Z,99.90
2023-12-03T16:38:08.471Z,99.90
2023-12-03T16:42:11.106Z,99.90
2023-12-03T16:46:12.552Z,99.90
2023-12-03T16:50:15.026Z,99.90
2023-12-03T16:54:18.267Z,99.90
2023-12-03T16:58:19.572Z,99.90
2023-12-03T17:02:20.916Z,99.90
2023-12-03T17:06:22.478Z,99.90
2023-12-03T17:10:23.990Z,99.90
2023-12-03T17:14:25.281Z,99.90
2023-12-03T17:18:27.096Z,99.90
2023-12-03T17:22:28.888Z,99.90
2023-12-03T17:26:31.899Z,99.90
2023-12-03T17:30:33.295Z,99.90
2023-12-03T17:34:34.663Z,99.90
2023-12-03T17:38:36.085Z,99.90
2023-12-03T17:42:38.710Z,99.90
2023-12-03T17:46:40.019Z,99.90
2023-12-03T17:50:41.381Z,99.90
2023-12-03T17:54:43.729Z,99.90
2023-12-03T17:58:47.121Z,99.90
2023-12-03T18:02:49.042Z,99.90
2023-12-03T18:06:50.383Z,99.90
2023-12-03T18:10:51.686Z,99.90
2023-12-03T18:14:54.624Z,99.90
2023-12-03T18:18:56.530Z,99.90
2023-12-03T18:22:57.882Z,99.90
2023-12-03T18:26:59.737Z,99.90
2023-12-03T18:31:01.167Z,99.90
2023-12-03T18:35:03.933Z,99.90
2023-12-03T18:39:07.235Z,99.90
2023-12-03T18:43:08.624Z,99.90
2023-12-03T18:47:10.462Z,99.90
2023-12-03T18:51:12.651Z,99.90
2023-12-03T18:55:14.206Z,99.90
2023-12-03T18:59:16.882Z,99.90
2023-12-03T19:03:18.673Z,99.90
2023-12-03T19:07:20.040Z,99.90
2023-12-03T19:11:22.039Z,99.90
2023-12-03T19:15:23.382Z,99.90
2023-12-03T19:19:24.790Z,99.90
2023-12-03T19:23:26.348Z,99.90
2023-12-03T19:27:28.453Z,99.90
2023-12-03T19:31:29.766Z,99.90
2023-12-03T19:35:31.189Z,99.90
2023-12-03T19:39:33.212Z,99.90
2023-12-03T19:43:34.746Z,99.90
2023-12-03T19:47:38.112Z,99.90
2023-12-03T19:51:39.416Z,99.90
2023-12-03T19:55:40.749Z,99.90
2023-12-03T19:59:42.538Z,99.90
2023-12-03T20:03:45.473Z,99.90
2023-12-03T20:07:47.104Z,99.90
2023-12-03T20:11:48.794Z,99.90
2023-12-03T20:15:50.244Z,99.90
2023-12-03T20:19:52.412Z,99.90
2023-12-03T20:23:53.858Z,99.90
2023-12-03T20:27:55.379Z,99.90
2023-12-03T20:31:56.814Z,99.90
2023-12-03T20:35:58.233Z,99.90
2023-12-03T20:39:59.701Z,99.90
2023-12-03T20:44:02.156Z,99.90
2023-12-03T20:48:04.044Z,99.90
2023-12-03T20:52:08.467Z,99.90
2023-12-03T20:56:10.817Z,99.90
2023-12-03T21:00:13.325Z,99.90
2023-12-03T21:04:15.141Z,99.90
2023-12-03T21:08:16.466Z,99.90
2023-12-03T21:12:17.850Z,99.90
2023-12-03T21:16:19.259Z,99.90
2023-12-03T21:20:20.868Z,99.90
2023-12-03T21:24:23.952Z,99.90
2023-12-03T21:28:25.296Z,99.90
2023-12-03T21:32:28.460Z,99.90
2023-12-03T21:36:30.684Z,99.90
2023-12-03T21:40:32.054Z,99.90
2023-12-03T21:44:33.316Z,99.90
2023-12-03T21:48:34.715Z,99.90
2023-12-03T21:52:36.156Z,99.90
2023-12-03T21:56:37.642Z,99.90
2023-12-03T22:00:39.021Z,99.90
2023-12-03T22:04:40.379Z,99.90
2023-12-03T22:08:41.748Z,99.90
2023-12-03T22:12:43.636Z,99.90
2023-12-03T22:16:45.024Z,99.90
2023-12-03T22:20:47.243Z,99.90
2023-12-03T22:24:48.566Z,99.90
2023-12-03T22:28:50.165Z,99.90
2023-12-03T22:32:51.729Z,99.90
2023-12-03T22:36:53.498Z,99.90
2023-12-03T22:40:54.833Z,99.90
2023-12-03T22:44:56.845Z,99.90
2023-12-03T22:48:58.253Z,99.90
2023-12-03T22:52:59.584Z,99.90
2023-12-03T22:57:01.189Z,99.90
2023-12-03T23:01:02.640Z,99.90
2023-12-03T23:05:05.223Z,99.90
2023-12-03T23:09:06.477Z,99.90
2023-12-03T23:13:07.926Z,99.90
2023-12-03T23:17:09.333Z,99.90
2023-12-03T23:21:10.631Z,99.90
2023-12-03T23:25:12.004Z,99.90
2023-12-03T23:29:13.451Z,99.90
2023-12-03T23:33:14.857Z,99.90
2023-12-03T23:37:16.137Z,99.90
2023-12-03T23:41:17.724Z,99.90
2023-12-03T23:45:19.047Z,99.90
2023-12-03T23:49:20.456Z,99.90
2023-12-03T23:53:21.781Z,99.90
2023-12-03T23:57:23.927Z,99.90
